Time;durP1;ratioP1;P1;durP2;ratioP2;P2;SDS_P1;SDS_P2;PMS_P1;PMS_P2;Temp;Humidity;BMP_temperature;BMP_pressure;BME280_temperature;BME280_humidity;BME280_pressure;Samples;Min_cycle;Max_cycle;Signal;HPM_P1;HPM_P2
2022/12/27 00:00:22;;;;;;;7.32;3.72;;;3.90;99.90;;;;;;5043702;28;20731;-39
2022/12/27 00:02:47;;;;;;;7.35;3.40;;;3.90;99.90;;;;;;5045234;28;20037;-39
2022/12/27 00:05:14;;;;;;;7.25;3.38;;;3.90;99.90;;;;;;5043975;28;20104;-39
2022/12/27 00:07:40;;;;;;;6.05;2.83;;;3.90;99.90;;;;;;5045185;28;20763;-41
2022/12/27 00:10:06;;;;;;;4.70;3.05;;;3.90;99.90;;;;;;5044350;28;20099;-39
2022/12/27 00:12:32;;;;;;;6.82;3.15;;;3.90;99.90;;;;;;5044486;28;20146;-40
2022/12/27 00:14:57;;;;;;;6.07;3.70;;;3.90;99.90;;;;;;5044400;28;20043;-39
2022/12/27 00:17:23;;;;;;;7.70;3.55;;;3.90;99.90;;;;;;5045252;28;20068;-39
2022/12/27 00:19:49;;;;;;;5.57;3.60;;;3.90;99.90;;;;;;5044347;28;20049;-39
2022/12/27 00:22:14;;;;;;;8.10;3.90;;;3.80;99.90;;;;;;5044014;28;20040;-38
2022/12/27 00:24:40;;;;;;;4.90;3.35;;;3.80;99.90;;;;;;5044927;28;20059;-40
2022/12/27 00:27:05;;;;;;;6.53;3.63;;;3.80;99.90;;;;;;5043542;28;20059;-40
2022/12/27 00:29:31;;;;;;;7.40;3.65;;;3.80;99.90;;;;;;5044645;28;20120;-39
2022/12/27 00:31:57;;;;;;;8.18;3.92;;;3.90;99.90;;;;;;5044592;28;20578;-38
2022/12/27 00:34:22;;;;;;;6.78;3.72;;;3.80;99.90;;;;;;5044099;28;20041;-34
2022/12/27 00:36:48;;;;;;;5.63;3.33;;;3.80;99.90;;;;;;5044692;28;20033;-39
2022/12/27 00:39:13;;;;;;;4.65;3.08;;;3.80;99.90;;;;;;5043928;28;20033;-40
2022/12/27 00:41:39;;;;;;;5.38;3.60;;;3.80;99.90;;;;;;5043852;28;20036;-41
2022/12/27 00:44:05;;;;;;;5.32;3.20;;;3.80;99.90;;;;;;5044105;28;20021;-39
2022/12/27 00:46:30;;;;;;;6.40;3.20;;;3.80;99.90;;;;;;5044648;28;20422;-40
2022/12/27 00:48:57;;;;;;;6.40;2.92;;;3.80;99.90;;;;;;5044230;28;20017;-40
2022/12/27 00:51:24;;;;;;;4.85;2.90;;;3.80;99.90;;;;;;5044014;28;20036;-38
2022/12/27 00:53:51;;;;;;;6.78;3.10;;;3.80;99.90;;;;;;5045254;28;20017;-40
2022/12/27 00:56:22;;;;;;;7.50;3.45;;;3.70;99.90;;;;;;5042916;28;20090;-37
2022/12/27 00:58:56;;;;;;;5.25;3.05;;;3.80;99.90;;;;;;5044480;28;20444;-34
2022/12/27 01:01:23;;;;;;;6.13;3.10;;;3.80;99.90;;;;;;5043694;28;20100;-39
2022/12/27 01:03:49;;;;;;;5.38;3.30;;;3.80;99.90;;;;;;5043557;28;20032;-39
2022/12/27 01:06:17;;;;;;;7.93;3.53;;;3.80;99.90;;;;;;5043167;28;20090;-38
2022/12/27 01:08:44;;;;;;;11.25;4.65;;;3.70;99.90;;;;;;5043597;28;20029;-35
2022/12/27 01:11:10;;;;;;;7.85;3.40;;;3.70;99.90;;;;;;5043406;28;20067;-40
2022/12/27 01:13:37;;;;;;;6.88;3.80;;;3.70;99.90;;;;;;5044241;28;20429;-36
2022/12/27 01:16:14;;;;;;;7.07;3.30;;;3.70;99.90;;;;;;5043254;28;20096;-40
2022/12/27 01:18:40;;;;;;;5.43;3.60;;;3.80;99.90;;;;;;5044093;28;20036;-37
2022/12/27 01:21:07;;;;;;;5.28;3.33;;;3.80;99.90;;;;;;5042880;28;20029;-39
2022/12/27 01:23:33;;;;;;;7.32;3.78;;;3.80;99.90;;;;;;5043032;28;20029;-37
2022/12/27 01:26:03;;;;;;;8.10;3.63;;;3.70;99.90;;;;;;5041316;28;20044;-38
2022/12/27 01:28:29;;;;;;;7.03;3.90;;;3.70;99.90;;;;;;5035136;28;20032;-39
2022/12/27 01:30:55;;;;;;;10.48;4.00;;;3.80;99.90;;;;;;5042920;28;20032;-38
2022/12/27 01:33:21;;;;;;;6.30;3.70;;;3.80;99.90;;;;;;5043250;28;20048;-39
2022/12/27 01:35:46;;;;;;;7.07;3.58;;;3.70;99.90;;;;;;5043770;28;20037;-40
2022/12/27 01:38:12;;;;;;;5.95;3.72;;;3.80;99.90;;;;;;5041362;28;20086;-40
2022/12/27 01:40:38;;;;;;;7.03;3.90;;;3.80;99.90;;;;;;5043593;28;20116;-41
2022/12/27 01:43:03;;;;;;;8.48;3.72;;;3.80;99.90;;;;;;5043095;28;20032;-37
2022/12/27 01:45:33;;;;;;;7.20;3.95;;;3.80;99.90;;;;;;5042784;28;20052;-36
2022/12/27 01:48:19;;;;;;;7.20;3.75;;;3.90;99.90;;;;;;5042699;28;20101;-37
2022/12/27 01:50:59;;;;;;;6.38;3.55;;;3.90;99.90;;;;;;5042707;28;20056;-40
2022/12/27 01:53:31;;;;;;;7.80;3.67;;;3.90;99.90;;;;;;5043284;28;20032;-39
2022/12/27 01:56:25;;;;;;;6.80;3.65;;;3.90;99.90;;;;;;5043356;28;20025;-37
2022/12/27 01:59:01;;;;;;;9.32;3.70;;;3.90;99.90;;;;;;5042450;28;20029;-40
2022/12/27 02:01:31;;;;;;;6.65;3.72;;;3.90;99.90;;;;;;5043847;28;20048;-39
2022/12/27 02:04:07;;;;;;;4.80;3.28;;;3.80;99.90;;;;;;5042964;28;20086;-39
2022/12/27 02:06:38;;;;;;;6.03;3.40;;;3.80;99.90;;;;;;5022505;28;20031;-38
2022/12/27 02:09:13;;;;;;;5.60;3.40;;;3.80;99.90;;;;;;5038508;28;20372;-37
2022/12/27 02:11:49;;;;;;;7.60;3.20;;;3.90;99.90;;;;;;5023080;28;20064;-38
2022/12/27 02:14:22;;;;;;;6.45;3.58;;;3.90;99.90;;;;;;5038306;28;20037;-39
2022/12/27 02:16:48;;;;;;;6.40;2.90;;;3.90;99.90;;;;;;5023442;28;20033;-38
2022/12/27 02:19:39;;;;;;;9.98;4.18;;;4.00;99.90;;;;;;5036189;28;20025;-38
2022/12/27 02:22:28;;;;;;;6.88;4.55;;;4.10;99.90;;;;;;5022282;28;20128;-39
2022/12/27 02:25:29;;;;;;;8.88;5.03;;;4.20;99.90;;;;;;5041242;28;20029;-41
2022/12/27 02:28:08;;;;;;;7.63;4.32;;;4.30;99.90;;;;;;5034205;28;20051;-40
2022/12/27 02:30:35;;;;;;;6.97;3.58;;;4.40;99.90;;;;;;5039571;28;20052;-39
2022/12/27 02:33:12;;;;;;;6.28;3.67;;;4.50;99.90;;;;;;5040921;28;20080;-39
2022/12/27 02:35:59;;;;;;;5.57;3.25;;;4.50;99.90;;;;;;5039173;28;20418;-38
2022/12/27 02:38:32;;;;;;;8.57;3.92;;;4.50;99.90;;;;;;5042169;28;20053;-39
2022/12/27 02:53:06;;;;;;;5.47;3.08;;;4.50;99.90;;;;;;5041120;28;20056;-38
2022/12/27 02:59:12;;;;;;;6.20;3.22;;;4.30;99.90;;;;;;5021925;28;20040;-39
2022/12/27 03:04:52;;;;;;;6.20;4.00;;;4.20;99.90;;;;;;5041354;28;21311;-38
2022/12/27 03:07:25;;;;;;;4.68;2.42;;;4.20;99.90;;;;;;5031735;28;20041;-38
2022/12/27 03:15:57;;;;;;;4.82;2.28;;;4.30;99.90;;;;;;5039184;28;20128;-39
2022/12/27 03:18:44;;;;;;;5.32;2.58;;;4.30;99.90;;;;;;5042288;28;20039;-39
2022/12/27 03:26:47;;;;;;;2.90;2.08;;;4.20;99.90;;;;;;5038349;28;20095;-39
2022/12/27 03:35:04;;;;;;;4.88;2.72;;;4.10;99.90;;;;;;5041623;28;20098;-39
2022/12/27 03:43:54;;;;;;;7.78;3.00;;;4.20;99.90;;;;;;5022766;28;20084;-39
2022/12/27 03:46:33;;;;;;;4.68;2.97;;;4.20;99.90;;;;;;5040745;28;20033;-38
2022/12/27 03:49:17;;;;;;;9.15;3.33;;;4.30;99.90;;;;;;5041235;28;20086;-38
2022/12/27 03:52:04;;;;;;;8.25;4.00;;;4.30;99.90;;;;;;5044670;28;20040;-37
2022/12/27 03:54:35;;;;;;;8.65;3.63;;;4.30;99.90;;;;;;5044652;28;20036;-39
2022/12/27 03:57:07;;;;;;;5.63;3.70;;;4.30;99.90;;;;;;5043579;28;20174;-39
2022/12/27 03:59:33;;;;;;;5.45;3.65;;;4.30;99.90;;;;;;5044278;28;20033;-38
2022/12/27 04:01:59;;;;;;;10.38;4.10;;;4.30;99.90;;;;;;5044169;28;20069;-40
2022/12/27 04:04:25;;;;;;;8.73;4.43;;;4.30;99.90;;;;;;5044077;28;20033;-40
2022/12/27 04:06:51;;;;;;;10.23;4.50;;;4.30;99.90;;;;;;5045041;28;20040;-38
2022/12/27 04:36:38;;;;;;;7.15;3.08;;;4.10;99.90;;;;;;5024105;28;20127;-40
2022/12/27 04:39:04;;;;;;;9.52;3.50;;;4.00;99.90;;;;;;5039759;28;20130;-35
2022/12/27 04:55:19;;;;;;;4.90;2.65;;;3.90;99.90;;;;;;5041368;28;20048;-39
2022/12/27 04:57:44;;;;;;;6.80;2.80;;;3.90;99.90;;;;;;5043823;28;20055;-39
2022/12/27 05:02:56;;;;;;;6.90;2.90;;;3.90;99.90;;;;;;5043829;28;20040;-38
2022/12/27 05:05:22;;;;;;;5.45;3.05;;;3.90;99.90;;;;;;5043443;28;20089;-37
2022/12/27 05:16:01;;;;;;;7.45;3.17;;;4.00;99.90;;;;;;5042011;28;20052;-38
2022/12/27 05:18:26;;;;;;;6.30;3.05;;;4.00;99.90;;;;;;5043174;28;20050;-40
2022/12/27 05:20:52;;;;;;;8.90;3.50;;;4.00;99.90;;;;;;5042715;28;20032;-35
2022/12/27 05:26:02;;;;;;;5.40;3.10;;;4.00;99.90;;;;;;5042634;28;20055;-41
2022/12/27 05:28:28;;;;;;;4.82;3.10;;;4.00;99.90;;;;;;5042933;28;20029;-39
2022/12/27 05:30:53;;;;;;;8.30;3.10;;;4.00;99.90;;;;;;5041224;28;20080;-40
2022/12/27 05:33:19;;;;;;;6.55;3.15;;;4.10;99.90;;;;;;5042108;28;20061;-42
2022/12/27 05:35:44;;;;;;;8.38;3.45;;;4.10;99.90;;;;;;5042606;28;20037;-38
2022/12/27 05:38:10;;;;;;;6.78;3.05;;;4.10;99.90;;;;;;5042712;28;20063;-40
2022/12/27 05:40:35;;;;;;;7.30;3.22;;;4.10;99.90;;;;;;5042739;28;20082;-39
2022/12/27 05:43:02;;;;;;;5.82;3.28;;;4.10;99.90;;;;;;5042037;28;20029;-39
2022/12/27 05:45:28;;;;;;;4.65;2.70;;;4.00;99.90;;;;;;5042801;28;20029;-38
2022/12/27 05:47:54;;;;;;;6.18;2.83;;;4.00;99.90;;;;;;5042535;28;20119;-39
2022/12/27 05:50:20;;;;;;;5.97;3.17;;;4.00;99.90;;;;;;5041128;28;20082;-39
2022/12/27 05:52:45;;;;;;;7.90;3.63;;;4.00;99.90;;;;;;5042638;28;20070;-39
2022/12/27 05:55:11;;;;;;;5.50;2.85;;;4.00;99.90;;;;;;5042076;28;20028;-38
2022/12/27 05:57:37;;;;;;;9.27;3.40;;;4.00;99.90;;;;;;5041943;28;20028;-38
2022/12/27 06:00:04;;;;;;;5.80;2.70;;;4.00;99.90;;;;;;5041440;28;20185;-39
2022/12/27 06:02:30;;;;;;;6.57;3.08;;;4.00;99.90;;;;;;5042471;28;20033;-37
2022/12/27 06:04:56;;;;;;;6.32;3.00;;;4.00;99.90;;;;;;5042470;28;20032;-40
2022/12/27 06:07:22;;;;;;;6.45;3.20;;;4.00;99.90;;;;;;5041262;28;20021;-38
2022/12/27 06:09:47;;;;;;;8.73;3.00;;;4.00;99.90;;;;;;5042682;28;20033;-38
2022/12/27 06:12:13;;;;;;;4.47;2.58;;;3.90;99.90;;;;;;5040034;28;20029;-33
2022/12/27 06:14:40;;;;;;;5.63;3.17;;;3.90;99.90;;;;;;5041971;28;20028;-39
2022/12/27 06:17:05;;;;;;;5.22;2.60;;;3.90;99.90;;;;;;5040998;28;20037;-36
2022/12/27 06:19:31;;;;;;;9.68;3.63;;;3.90;99.90;;;;;;5041058;28;20025;-38
2022/12/27 06:21:57;;;;;;;4.70;2.92;;;3.90;99.90;;;;;;5041629;28;20032;-40
2022/12/27 06:24:22;;;;;;;5.10;3.03;;;3.90;99.90;;;;;;5041332;28;20532;-40
2022/12/27 06:26:48;;;;;;;6.82;3.05;;;3.90;99.90;;;;;;5041390;28;20534;-38
2022/12/27 06:29:13;;;;;;;6.28;3.08;;;3.90;99.90;;;;;;5041344;28;20064;-40
2022/12/27 06:31:39;;;;;;;4.75;2.80;;;4.00;99.90;;;;;;5041866;28;20061;-37
2022/12/27 06:34:04;;;;;;;4.85;2.80;;;4.00;99.90;;;;;;5040577;28;20053;-40
2022/12/27 06:36:31;;;;;;;6.05;3.22;;;4.00;99.90;;;;;;5041972;28;20032;-37
2022/12/27 06:38:58;;;;;;;5.70;2.92;;;4.00;99.90;;;;;;5041695;28;20032;-40
2022/12/27 06:41:24;;;;;;;5.05;2.67;;;4.00;99.90;;;;;;5041354;28;20036;-38
2022/12/27 06:43:54;;;;;;;6.68;2.50;;;4.00;99.90;;;;;;5041365;28;20854;-36
2022/12/27 06:46:23;;;;;;;6.25;2.65;;;3.90;99.90;;;;;;5040664;28;20025;-38
2022/12/27 06:48:48;;;;;;;6.03;2.70;;;3.90;99.90;;;;;;5041006;28;20045;-37
2022/12/27 06:51:16;;;;;;;4.60;2.47;;;3.90;99.90;;;;;;5041278;28;20838;-38
2022/12/27 06:53:42;;;;;;;5.72;2.92;;;3.90;99.90;;;;;;5040372;28;20035;-39
2022/12/27 06:56:10;;;;;;;7.60;3.00;;;3.90;99.90;;;;;;5041112;28;20778;-38
2022/12/27 06:58:36;;;;;;;6.20;2.83;;;3.90;99.90;;;;;;5041740;28;20040;-40
2022/12/27 07:01:12;;;;;;;7.38;3.25;;;3.90;99.90;;;;;;5040779;28;20033;-38
2022/12/27 07:03:39;;;;;;;5.40;3.05;;;3.90;99.90;;;;;;5041589;28;20038;-40
2022/12/27 07:06:06;;;;;;;6.78;2.92;;;3.90;99.90;;;;;;5040984;28;20036;-37
2022/12/27 07:08:33;;;;;;;7.25;3.20;;;3.90;99.90;;;;;;5040982;28;20731;-39
2022/12/27 07:11:03;;;;;;;5.93;3.20;;;3.90;99.90;;;;;;5042304;28;20045;-39
2022/12/27 07:13:33;;;;;;;7.47;2.78;;;3.90;99.90;;;;;;5051297;28;20056;-39
2022/12/27 07:15:58;;;;;;;7.80;3.00;;;3.90;99.90;;;;;;5040849;28;20055;-38
2022/12/27 07:18:24;;;;;;;6.70;2.85;;;3.80;99.90;;;;;;5040452;28;20559;-39
2022/12/27 07:20:49;;;;;;;4.13;2.35;;;3.90;99.90;;;;;;5041440;28;20037;-36
2022/12/27 07:23:15;;;;;;;5.82;2.60;;;3.80;99.90;;;;;;5040492;28;20029;-39
2022/12/27 07:25:41;;;;;;;5.78;2.55;;;3.80;99.90;;;;;;5045205;28;20032;-39
2022/12/27 07:28:06;;;;;;;5.18;2.38;;;3.80;99.90;;;;;;5044463;28;20492;-39
2022/12/27 07:30:32;;;;;;;7.07;2.70;;;3.80;99.90;;;;;;5042215;28;20036;-36
2022/12/27 07:32:57;;;;;;;4.50;2.58;;;3.80;99.90;;;;;;5043527;28;20540;-40
2022/12/27 07:35:23;;;;;;;3.63;2.28;;;3.80;99.90;;;;;;5042883;28;20113;-38
2022/12/27 07:37:48;;;;;;;6.90;2.83;;;3.70;99.90;;;;;;5044727;28;20028;-36
2022/12/27 07:40:14;;;;;;;4.47;2.30;;;3.70;99.90;;;;;;5043512;28;20120;-38
2022/12/27 07:42:40;;;;;;;6.05;2.65;;;3.70;99.90;;;;;;5042833;28;20138;-39
2022/12/27 07:45:06;;;;;;;3.83;2.45;;;3.70;99.90;;;;;;5043374;28;20087;-40
2022/12/27 07:47:31;;;;;;;4.38;2.40;;;3.70;99.90;;;;;;5044162;28;20036;-35
2022/12/27 07:49:57;;;;;;;6.45;2.78;;;3.70;99.90;;;;;;5042659;28;20077;-40
2022/12/27 07:52:23;;;;;;;4.95;2.75;;;3.70;99.90;;;;;;5044663;28;20035;-34
2022/12/27 07:54:48;;;;;;;3.67;2.60;;;3.70;99.90;;;;;;5044451;28;20024;-38
2022/12/27 07:57:14;;;;;;;4.68;2.83;;;3.70;99.90;;;;;;5043181;28;20025;-41
2022/12/27 07:59:39;;;;;;;6.07;2.90;;;3.70;99.90;;;;;;5044104;28;20491;-40
2022/12/27 08:02:05;;;;;;;6.30;2.88;;;3.70;99.90;;;;;;5044170;28;20059;-38
2022/12/27 08:04:35;;;;;;;10.90;3.55;;;3.70;99.90;;;;;;5044167;28;20033;-39
2022/12/27 08:07:14;;;;;;;5.30;3.20;;;3.70;99.90;;;;;;5044548;28;20052;-38
2022/12/27 08:09:42;;;;;;;5.25;3.47;;;3.80;99.90;;;;;;5044017;28;20326;-39
2022/12/27 08:12:08;;;;;;;7.57;3.92;;;3.80;99.90;;;;;;5042791;28;20482;-41
2022/12/27 08:14:34;;;;;;;7.07;3.40;;;3.80;99.90;;;;;;5044413;28;20031;-40
2022/12/27 08:17:21;;;;;;;7.93;3.80;;;3.80;99.90;;;;;;5043830;28;20029;-40
2022/12/27 08:19:49;;;;;;;8.65;4.00;;;3.90;99.90;;;;;;5044800;28;20031;-40
2022/12/27 08:22:15;;;;;;;8.57;4.70;;;3.80;99.90;;;;;;5042333;28;20036;-39
2022/12/27 08:24:42;;;;;;;7.32;4.10;;;3.80;99.90;;;;;;5043131;28;20029;-38
2022/12/27 08:27:08;;;;;;;7.15;3.75;;;3.90;99.90;;;;;;5043681;28;20066;-37
2022/12/27 08:29:34;;;;;;;6.05;3.95;;;3.90;99.90;;;;;;5044684;28;20059;-41
2022/12/27 08:32:00;;;;;;;9.27;4.22;;;3.90;99.90;;;;;;5042630;28;20041;-40
2022/12/27 08:34:25;;;;;;;7.85;4.10;;;3.90;99.90;;;;;;5044077;28;20060;-40
2022/12/27 08:36:54;;;;;;;7.70;4.30;;;3.90;99.90;;;;;;5042915;28;20443;-39
2022/12/27 08:39:19;;;;;;;10.45;5.03;;;3.90;99.90;;;;;;5042512;28;20201;-39
2022/12/27 08:41:45;;;;;;;9.40;4.47;;;3.90;99.90;;;;;;5043492;28;20052;-38
2022/12/27 08:44:14;;;;;;;10.15;4.22;;;3.90;99.90;;;;;;5043490;28;20469;-36
2022/12/27 08:46:39;;;;;;;7.13;4.20;;;4.00;99.90;;;;;;5042912;28;20127;-42
2022/12/27 08:49:05;;;;;;;5.30;3.40;;;4.00;99.90;;;;;;5042926;28;20116;-38
2022/12/27 08:51:30;;;;;;;8.50;4.05;;;4.00;99.90;;;;;;5043206;28;20915;-37
2022/12/27 08:53:56;;;;;;;9.43;3.83;;;4.00;99.90;;;;;;5042617;28;20424;-39
2022/12/27 08:56:22;;;;;;;7.90;4.13;;;4.00;99.90;;;;;;5043486;28;20544;-42
2022/12/27 08:58:48;;;;;;;7.70;4.00;;;4.00;99.90;;;;;;5043577;28;20024;-40
2022/12/27 09:01:14;;;;;;;10.68;4.60;;;4.00;99.90;;;;;;5041976;28;20079;-39
2022/12/27 09:03:40;;;;;;;7.82;4.30;;;4.00;99.90;;;;;;5043603;28;20021;-38
2022/12/27 09:06:20;;;;;;;9.40;4.63;;;4.10;99.90;;;;;;5042711;28;20476;-40
2022/12/27 09:08:47;;;;;;;8.85;4.60;;;4.10;99.90;;;;;;5039244;28;20377;-39
2022/12/27 09:11:14;;;;;;;9.20;4.75;;;4.10;99.90;;;;;;5042086;28;20057;-38
2022/12/27 09:13:40;;;;;;;9.02;4.68;;;4.10;99.90;;;;;;5043625;28;20045;-40
2022/12/27 09:16:11;;;;;;;9.30;4.18;;;4.10;99.90;;;;;;5041858;28;20091;-40
2022/12/27 09:18:37;;;;;;;8.02;4.20;;;4.20;99.90;;;;;;5042895;28;20045;-38
2022/12/27 09:21:11;;;;;;;9.38;5.18;;;4.20;99.90;;;;;;5041232;28;20127;-40
2022/12/27 09:23:37;;;;;;;9.93;4.78;;;4.20;99.90;;;;;;5042397;28;20067;-36
2022/12/27 09:26:11;;;;;;;9.30;4.30;;;4.20;99.90;;;;;;5022676;28;20029;-39
2022/12/27 09:28:37;;;;;;;8.82;4.65;;;4.30;99.90;;;;;;5037136;28;20449;-40
2022/12/27 09:31:03;;;;;;;8.30;4.30;;;4.30;99.90;;;;;;5041950;28;20037;-39
2022/12/27 09:33:29;;;;;;;10.02;4.55;;;4.30;99.90;;;;;;5042430;28;20053;-38
2022/12/27 09:36:07;;;;;;;8.27;4.47;;;4.40;99.90;;;;;;5041723;28;20029;-39
2022/12/27 09:38:33;;;;;;;9.90;4.40;;;4.50;99.90;;;;;;5042340;28;20025;-37
2022/12/27 09:41:01;;;;;;;8.60;4.20;;;4.60;99.90;;;;;;5041711;28;20025;-40
2022/12/27 09:43:53;;;;;;;12.18;5.05;;;4.60;99.90;;;;;;5041550;28;20029;-38
2022/12/27 09:46:24;;;;;;;10.68;4.30;;;4.60;99.90;;;;;;5030720;28;20041;-38
2022/12/27 09:48:51;;;;;;;12.23;5.65;;;4.70;99.90;;;;;;5040816;28;20108;-38
2022/12/27 09:51:18;;;;;;;7.88;4.32;;;4.70;99.90;;;;;;5038463;28;20152;-39
2022/12/27 09:53:54;;;;;;;8.05;4.25;;;4.80;99.90;;;;;;5042362;28;20230;-37
2022/12/27 09:56:24;;;;;;;8.55;4.07;;;4.80;99.90;;;;;;5041506;28;20025;-39
2022/12/27 09:58:52;;;;;;;7.72;4.20;;;4.90;99.90;;;;;;5042328;28;20021;-37
2022/12/27 10:01:27;;;;;;;8.13;4.35;;;4.90;99.90;;;;;;5041702;28;20036;-36
2022/12/27 10:03:53;;;;;;;10.95;5.20;;;4.90;99.90;;;;;;5041543;28;20024;-38
2022/12/27 10:06:44;;;;;;;12.65;4.70;;;5.00;99.90;;;;;;5041709;28;20555;-40
2022/12/27 10:09:27;;;;;;;7.22;4.50;;;5.00;99.90;;;;;;5042309;28;20040;-41
2022/12/27 10:12:15;;;;;;;9.98;4.63;;;5.00;99.90;;;;;;5041461;28;20052;-39
2022/12/27 10:14:58;;;;;;;6.32;4.38;;;5.10;99.90;;;;;;5042272;28;20029;-37
2022/12/27 10:18:05;;;;;;;7.53;4.60;;;5.10;99.90;;;;;;5041065;28;20573;-44
2022/12/27 10:20:36;;;;;;;11.07;4.47;;;5.10;99.90;;;;;;5030005;28;20049;-40
2022/12/27 10:23:05;;;;;;;8.45;4.30;;;5.20;99.90;;;;;;5021567;28;20141;-38
2022/12/27 10:25:33;;;;;;;6.18;4.20;;;5.20;99.90;;;;;;5036550;28;20045;-39
2022/12/27 10:28:15;;;;;;;9.68;5.30;;;5.30;99.90;;;;;;5041347;28;20025;-40
2022/12/27 10:30:42;;;;;;;7.57;5.07;;;5.30;99.90;;;;;;5041541;28;20049;-40
2022/12/27 10:33:29;;;;;;;7.50;5.10;;;5.40;99.90;;;;;;5039063;28;20049;-39
2022/12/27 10:35:55;;;;;;;7.93;5.28;;;5.50;99.90;;;;;;5041433;28;20029;-40
2022/12/27 10:38:21;;;;;;;9.40;5.50;;;5.50;99.90;;;;;;5040424;28;20380;-40
2022/12/27 10:40:56;;;;;;;7.18;5.10;;;5.60;99.90;;;;;;5041613;28;20021;-40
2022/12/27 10:43:27;;;;;;;7.75;5.97;;;5.60;99.90;;;;;;5041418;28;20025;-40
2022/12/27 10:45:53;;;;;;;8.05;5.82;;;5.70;99.90;;;;;;5040789;28;20067;-40
2022/12/27 10:48:23;;;;;;;9.02;5.70;;;5.70;99.90;;;;;;5040588;28;20136;-37
2022/12/27 10:50:52;;;;;;;9.38;5.82;;;5.70;99.90;;;;;;5041147;28;20515;-40
2022/12/27 10:53:36;;;;;;;9.13;5.63;;;5.80;99.90;;;;;;5040556;28;20430;-39
2022/12/27 10:56:12;;;;;;;9.70;6.15;;;5.90;99.90;;;;;;5041592;28;20024;-36
2022/12/27 10:58:48;;;;;;;9.02;6.28;;;6.00;99.90;;;;;;5042812;28;20151;-39
2022/12/27 11:01:17;;;;;;;7.18;5.68;;;6.10;99.90;;;;;;5044660;28;20028;-38
2022/12/27 11:03:43;;;;;;;8.05;5.22;;;6.20;99.90;;;;;;5045117;28;20087;-36
2022/12/27 11:06:25;;;;;;;7.47;5.82;;;6.30;99.90;;;;;;5044622;28;20028;-38
2022/12/27 11:08:52;;;;;;;6.53;5.35;;;6.20;99.90;;;;;;5046144;28;20052;-39
2022/12/27 11:11:24;;;;;;;7.28;5.88;;;6.30;99.90;;;;;;5045138;28;20043;-38
2022/12/27 11:13:51;;;;;;;11.02;5.88;;;6.30;99.90;;;;;;5044639;28;20632;-39
2022/12/27 11:16:25;;;;;;;8.85;5.50;;;6.30;99.90;;;;;;5044651;28;20021;-38
2022/12/27 11:18:53;;;;;;;6.25;5.07;;;6.40;99.90;;;;;;5045318;28;20028;-41
2022/12/27 11:21:19;;;;;;;8.10;5.97;;;6.50;99.90;;;;;;5043793;28;20052;-39
2022/12/27 11:23:49;;;;;;;9.50;6.15;;;6.60;99.90;;;;;;5042915;28;20585;-40
2022/12/27 11:26:29;;;;;;;9.98;6.03;;;6.60;99.90;;;;;;5044190;28;20032;-38
2022/12/27 11:29:02;;;;;;;7.82;6.07;;;6.70;99.90;;;;;;5033770;28;20048;-40
2022/12/27 11:31:43;;;;;;;9.27;6.60;;;6.70;99.90;;;;;;5044903;28;20035;-40
2022/12/27 11:34:17;;;;;;;10.05;6.72;;;6.70;99.90;;;;;;5035186;28;20468;-38
2022/12/27 11:36:46;;;;;;;6.90;5.40;;;6.60;99.90;;;;;;5043908;28;20458;-40
2022/12/27 11:39:41;;;;;;;10.40;6.03;;;6.60;99.90;;;;;;5033246;28;20144;-40
2022/12/27 11:42:23;;;;;;;10.68;5.72;;;6.60;99.90;;;;;;5043924;28;20024;-39
2022/12/27 11:45:10;;;;;;;8.35;5.70;;;6.60;99.90;;;;;;5044946;28;20067;-41
2022/12/27 11:47:39;;;;;;;10.77;5.53;;;6.60;99.90;;;;;;5044474;28;20504;-39
2022/12/27 11:50:17;;;;;;;13.90;5.70;;;6.50;99.90;;;;;;5043106;28;20507;-40
2022/12/27 11:53:19;;;;;;;8.25;5.15;;;6.60;99.90;;;;;;5044113;28;20029;-40
2022/12/27 11:56:07;;;;;;;8.80;5.38;;;6.50;99.90;;;;;;5043955;28;20043;-40
2022/12/27 11:59:09;;;;;;;8.68;5.30;;;6.60;99.90;;;;;;5044426;28;20128;-40
2022/12/27 12:02:06;;;;;;;7.78;4.90;;;6.60;99.90;;;;;;5025032;28;20041;-40
2022/12/27 12:05:06;;;;;;;7.57;4.65;;;6.60;99.90;;;;;;5043609;28;20032;-40
2022/12/27 12:08:19;;;;;;;6.60;4.47;;;6.70;99.90;;;;;;5044604;28;20040;-39
2022/12/27 12:10:49;;;;;;;9.48;4.70;;;6.70;99.90;;;;;;5012352;28;20034;-38
2022/12/27 12:13:33;;;;;;;5.32;3.70;;;6.80;99.90;;;;;;5039522;28;20032;-40
2022/12/27 12:16:07;;;;;;;7.05;3.70;;;6.80;99.90;;;;;;5044271;28;20025;-40
2022/12/27 12:18:59;;;;;;;9.05;3.67;;;6.90;99.90;;;;;;5043102;28;20237;-40
2022/12/27 12:22:05;;;;;;;3.97;3.30;;;7.00;99.90;;;;;;5043272;28;20071;-39
2022/12/27 12:24:38;;;;;;;6.68;3.70;;;7.10;99.90;;;;;;5042672;28;20040;-39
2022/12/27 12:27:24;;;;;;;6.18;3.13;;;7.20;99.90;;;;;;5043285;28;20032;-37
2022/12/27 12:30:11;;;;;;;4.82;3.10;;;7.20;99.90;;;;;;5043539;28;20029;-39
2022/12/27 12:32:58;;;;;;;5.68;3.30;;;7.30;99.90;;;;;;5024207;28;20079;-42
2022/12/27 12:35:26;;;;;;;6.45;3.17;;;7.40;99.90;;;;;;5043927;28;20041;-38
2022/12/27 12:38:04;;;;;;;7.13;3.30;;;7.50;99.90;;;;;;5043620;28;20082;-39
2022/12/27 12:40:46;;;;;;;5.55;3.22;;;7.50;99.90;;;;;;5043950;28;20033;-39
2022/12/27 12:43:30;;;;;;;6.15;3.67;;;7.60;99.90;;;;;;5043232;28;20140;-39
2022/12/27 12:46:22;;;;;;;8.40;4.13;;;7.70;99.90;;;;;;5041997;28;20046;-39
2022/12/27 12:49:09;;;;;;;6.38;3.05;;;7.70;99.90;;;;;;5043822;28;20029;-39
2022/12/27 12:51:41;;;;;;;6.40;2.70;;;7.70;99.90;;;;;;5043189;28;20770;-40
2022/12/27 12:54:25;;;;;;;8.40;2.90;;;7.80;99.90;;;;;;5042742;28;20025;-40
2022/12/27 12:56:56;;;;;;;7.78;4.22;;;7.80;99.90;;;;;;5033250;28;20025;-41
2022/12/27 12:59:49;;;;;;;7.00;3.17;;;7.80;99.90;;;;;;5042681;28;20017;-41
2022/12/27 13:02:33;;;;;;;;;;;7.80;99.90;;;;;;5035042;28;20029;-39
2022/12/27 13:05:27;;;;;;;6.97;3.08;;;7.80;99.90;;;;;;5043661;28;19915;-39
2022/12/27 13:08:00;;;;;;;;;;;7.70;99.90;;;;;;5044441;28;20032;-40
2022/12/27 13:10:58;;;;;;;6.22;3.20;;;7.70;99.90;;;;;;5043808;28;19939;-40
2022/12/27 13:13:32;;;;;;;8.50;3.17;;;7.70;99.90;;;;;;5042921;28;20420;-40
2022/12/27 13:16:18;;;;;;;6.72;3.10;;;7.60;99.90;;;;;;5043219;28;20036;-40
2022/12/27 13:19:22;;;;;;;6.35;3.47;;;7.60;99.90;;;;;;5043889;28;20120;-38
2022/12/27 13:21:56;;;;;;;6.15;3.00;;;7.60;99.90;;;;;;5041908;28;20044;-40
2022/12/27 13:24:31;;;;;;;5.20;2.70;;;7.60;99.90;;;;;;5042886;28;20479;-39
2022/12/27 13:27:09;;;;;;;6.75;2.80;;;7.60;99.90;;;;;;5042264;28;20025;-41
2022/12/27 13:30:02;;;;;;;7.47;4.15;;;7.60;99.90;;;;;;5043817;28;20059;-40
2022/12/27 13:32:57;;;;;;;8.98;4.38;;;7.70;99.90;;;;;;5042418;28;20036;-39
2022/12/27 13:35:39;;;;;;;5.60;3.50;;;7.70;99.90;;;;;;5041897;28;20043;-40
2022/12/27 13:38:20;;;;;;;5.40;3.10;;;7.80;99.90;;;;;;5042352;28;20025;-39
2022/12/27 13:41:12;;;;;;;4.32;2.60;;;7.80;99.90;;;;;;5042681;28;20484;-39
2022/12/27 13:43:53;;;;;;;4.45;2.60;;;7.90;99.90;;;;;;5034578;28;20068;-40
2022/12/27 13:46:24;;;;;;;5.43;2.70;;;7.90;99.90;;;;;;5042027;28;20036;-40
2022/12/27 13:48:53;;;;;;;4.47;2.90;;;7.90;99.90;;;;;;5041605;28;20090;-40
2022/12/27 13:51:48;;;;;;;4.00;2.70;;;8.00;99.90;;;;;;5041480;28;20048;-40
2022/12/27 13:54:32;;;;;;;4.95;2.75;;;8.00;99.90;;;;;;5042108;28;20036;-39
2022/12/27 13:57:17;;;;;;;5.22;2.72;;;8.00;99.90;;;;;;5041026;28;20039;-35
2022/12/27 13:59:45;;;;;;;5.85;3.00;;;8.00;99.90;;;;;;5042619;28;20037;-39
2022/12/27 14:02:36;;;;;;;5.00;2.67;;;8.00;99.90;;;;;;5040649;28;20043;-40
2022/12/27 14:05:01;;;;;;;5.07;2.70;;;8.10;99.90;;;;;;5041681;28;20045;-36
2022/12/27 14:07:40;;;;;;;5.80;3.20;;;8.00;99.90;;;;;;5042253;28;20059;-39
2022/12/27 14:10:46;;;;;;;7.90;3.30;;;8.00;99.90;;;;;;5041023;28;20037;-37
2022/12/27 14:13:24;;;;;;;6.68;3.17;;;8.10;99.90;;;;;;5037733;28;20648;-37
2022/12/27 14:16:02;;;;;;;5.88;3.15;;;8.10;99.90;;;;;;5022762;28;20340;-39
2022/12/27 14:18:50;;;;;;;5.60;3.63;;;8.10;99.90;;;;;;5038493;28;20033;-36
2022/12/27 14:21:34;;;;;;;4.20;3.05;;;8.10;99.90;;;;;;5041301;28;20036;-39
2022/12/27 14:24:28;;;;;;;5.55;2.78;;;8.00;99.90;;;;;;5040963;28;20029;-41
2022/12/27 14:27:18;;;;;;;4.85;2.95;;;8.00;99.90;;;;;;5041891;28;20028;-40
2022/12/27 14:30:50;;;;;;;4.95;3.10;;;8.00;99.90;;;;;;5040371;28;20029;-39
2022/12/27 14:33:30;;;;;;;4.20;2.70;;;8.00;99.90;;;;;;5015163;28;20041;-40
2022/12/27 14:36:14;;;;;;;7.53;3.20;;;7.90;99.90;;;;;;5017557;28;20542;-41
2022/12/27 14:38:58;;;;;;;4.90;3.05;;;7.90;99.90;;;;;;5032950;28;20458;-39
2022/12/27 14:41:38;;;;;;;6.78;3.20;;;7.80;99.90;;;;;;5040632;28;20116;-39
2022/12/27 14:44:22;;;;;;;6.03;2.72;;;7.80;99.90;;;;;;5041651;28;20055;-39
2022/12/27 14:47:15;;;;;;;6.80;3.22;;;7.80;99.90;;;;;;5022511;28;20069;-40
2022/12/27 14:50:09;;;;;;;8.77;4.38;;;7.80;99.90;;;;;;5040030;28;20036;-39
2022/12/27 14:52:37;;;;;;;7.47;4.07;;;7.80;99.90;;;;;;5041566;28;20029;-39
2022/12/27 14:55:38;;;;;;;6.10;3.70;;;7.70;99.90;;;;;;5040559;28;20021;-40
2022/12/27 14:58:39;;;;;;;6.15;4.00;;;7.70;99.90;;;;;;5040604;28;20528;-39
2022/12/27 15:01:15;;;;;;;8.20;3.97;;;7.70;99.90;;;;;;5030697;28;20036;-40
2022/12/27 15:03:46;;;;;;;8.18;4.10;;;7.70;99.90;;;;;;5040999;28;20036;-39
2022/12/27 15:06:36;;;;;;;6.13;3.60;;;7.70;99.90;;;;;;5030009;28;20056;-38